Main page
METAR-TAF:

METAR-TAF

Airports :

Cornwall Airport Newquay

Newquay Cornwall, England

latitude: 50-26N, longitude: 005-00W, elevation: 119 m

Current weather observation

The report was made 26 minutes ago, at 08:50 UTC
Wind 5 kt from the North
Temperature 8°C
Humidity 93%
Pressure 1036 hPa
Visibility 10 km or more
Few clouds at a height of 2000 ft

METAR: EGHQ 260850Z 36005KT 9999 FEW020 08/07 Q1036

Time: 09:16 (09:16 UTC)

Forecast

The report was made 1 hour and 18 minutes ago, at 07:58 UTC
Forecast valid from 26 at 09 UTC to 26 at 18 UTC
Wind 5 kt from the North/Northeast
Visibility 10 km or more
no clouds below 1500 m and no cumulonimbus
Probability 30% :
Temporary
from 26 at 12 UTC to 26 at 18 UTC
Broken clouds at a height of 3000 ft

TAF: EGHQ 260758Z 2609/2618 02005KT CAVOK PROB30 TEMPO 2612/2618 BKN030

Weather observations and forecasts of more than 4000 airports (METAR and TAF reports).

The available stations are represented by yellow and red dots on the map.

Hover mouse over dot to see the name of the station.

Then click to see weather observations and forecasts.

To change the map : click on the green buttons with a black cross to zoom in, on the green button with a dash to zoom out, or on the green arrows for adjacent maps.


METAR-TAF: